sensor_id;sensor_type;location;lat;lon;timestamp;pressure;altitude;pressure_sealevel;temperature
11321;BMP180;5715;48.234;14.320;2023-02-22T00:01:05;98612.00;;;12.00
11321;BMP180;5715;48.234;14.320;2023-02-22T00:04:06;98613.00;;;12.00
11321;BMP180;5715;48.234;14.320;2023-02-22T00:06:54;98615.00;;;11.90
11321;BMP180;5715;48.234;14.320;2023-02-22T00:09:41;98615.00;;;11.90
11321;BMP180;5715;48.234;14.320;2023-02-22T00:12:29;98615.00;;;12.00
11321;BMP180;5715;48.234;14.320;2023-02-22T00:15:22;98614.00;;;11.90
11321;BMP180;5715;48.234;14.320;2023-02-22T00:18:17;98618.00;;;11.80
11321;BMP180;5715;48.234;14.320;2023-02-22T00:21:05;98614.00;;;11.80
11321;BMP180;5715;48.234;14.320;2023-02-22T00:23:56;98614.00;;;11.80
11321;BMP180;5715;48.234;14.320;2023-02-22T00:26:44;98618.00;;;11.90
11321;BMP180;5715;48.234;14.320;2023-02-22T00:29:33;98615.00;;;11.80
11321;BMP180;5715;48.234;14.320;2023-02-22T00:32:21;98623.00;;;11.70
11321;BMP180;5715;48.234;14.320;2023-02-22T00:35:10;98609.00;;;11.70
11321;BMP180;5715;48.234;14.320;2023-02-22T00:38:00;98609.00;;;11.60
11321;BMP180;5715;48.234;14.320;2023-02-22T00:40:48;98621.00;;;11.60
11321;BMP180;5715;48.234;14.320;2023-02-22T00:43:35;98614.00;;;11.60
11321;BMP180;5715;48.234;14.320;2023-02-22T00:46:23;98613.00;;;11.60
11321;BMP180;5715;48.234;14.320;2023-02-22T00:49:10;98610.00;;;11.60
11321;BMP180;5715;48.234;14.320;2023-02-22T00:51:58;98607.00;;;11.60
11321;BMP180;5715;48.234;14.320;2023-02-22T00:54:46;98605.00;;;11.50
11321;BMP180;5715;48.234;14.320;2023-02-22T00:57:33;98609.00;;;11.50
11321;BMP180;5715;48.234;14.320;2023-02-22T01:03:19;98606.00;;;11.40
11321;BMP180;5715;48.234;14.320;2023-02-22T01:06:07;98616.00;;;11.50
11321;BMP180;5715;48.234;14.320;2023-02-22T01:08:55;98606.00;;;11.40
11321;BMP180;5715;48.234;14.320;2023-02-22T01:11:42;98607.00;;;11.40
11321;BMP180;5715;48.234;14.320;2023-02-22T01:14:31;98596.00;;;11.40
11321;BMP180;5715;48.234;14.320;2023-02-22T01:17:19;98595.00;;;11.40
11321;BMP180;5715;48.234;14.320;2023-02-22T01:20:10;98591.00;;;11.40
11321;BMP180;5715;48.234;14.320;2023-02-22T01:23:02;98589.00;;;11.30
11321;BMP180;5715;48.234;14.320;2023-02-22T01:25:53;98585.00;;;11.30
11321;BMP180;5715;48.234;14.320;2023-02-22T01:28:40;98588.00;;;11.10
11321;BMP180;5715;48.234;14.320;2023-02-22T01:31:28;98592.00;;;11.10
11321;BMP180;5715;48.234;14.320;2023-02-22T01:34:17;98594.00;;;11.10
11321;BMP180;5715;48.234;14.320;2023-02-22T01:37:05;98590.00;;;11.00
11321;BMP180;5715;48.234;14.320;2023-02-22T01:39:52;98588.00;;;11.00
11321;BMP180;5715;48.234;14.320;2023-02-22T01:42:40;98584.00;;;11.00
11321;BMP180;5715;48.234;14.320;2023-02-22T01:48:46;98581.00;;;11.10
11321;BMP180;5715;48.234;14.320;2023-02-22T01:51:44;98586.00;;;11.10
11321;BMP180;5715;48.234;14.320;2023-02-22T01:54:43;98587.00;;;11.10
11321;BMP180;5715;48.234;14.320;2023-02-22T01:57:35;98573.00;;;11.00
11321;BMP180;5715;48.234;14.320;2023-02-22T02:00:24;98570.00;;;11.00
11321;BMP180;5715;48.234;14.320;2023-02-22T02:03:24;98581.00;;;11.00
11321;BMP180;5715;48.234;14.320;2023-02-22T02:06:14;98567.00;;;10.90
11321;BMP180;5715;48.234;14.320;2023-02-22T02:12:35;98575.00;;;10.90
11321;BMP180;5715;48.234;14.320;2023-02-22T02:15:30;98574.00;;;10.80
11321;BMP180;5715;48.234;14.320;2023-02-22T02:18:18;98574.00;;;10.80
11321;BMP180;5715;48.234;14.320;2023-02-22T02:41:08;98559.00;;;10.60
11321;BMP180;5715;48.234;14.320;2023-02-22T02:44:52;98556.00;;;10.60
11321;BMP180;5715;48.234;14.320;2023-02-22T02:47:52;98552.00;;;10.60
11321;BMP180;5715;48.234;14.320;2023-02-22T02:50:47;98551.00;;;10.60
11321;BMP180;5715;48.234;14.320;2023-02-22T02:53:40;98544.00;;;10.60
11321;BMP180;5715;48.234;14.320;2023-02-22T02:56:30;98541.00;;;10.50
11321;BMP180;5715;48.234;14.320;2023-02-22T02:59:32;98541.00;;;10.60
11321;BMP180;5715;48.234;14.320;2023-02-22T03:09:02;98549.00;;;10.50
11321;BMP180;5715;48.234;14.320;2023-02-22T03:22:15;98548.00;;;10.10
11321;BMP180;5715;48.234;14.320;2023-02-22T03:25:12;98548.00;;;10.20
11321;BMP180;5715;48.234;14.320;2023-02-22T03:28:07;98545.00;;;10.20
11321;BMP180;5715;48.234;14.320;2023-02-22T03:31:03;98543.00;;;10.10
11321;BMP180;5715;48.234;14.320;2023-02-22T03:33:58;98535.00;;;10.10
11321;BMP180;5715;48.234;14.320;2023-02-22T03:37:02;98540.00;;;10.20
11321;BMP180;5715;48.234;14.320;2023-02-22T03:39:55;98539.00;;;10.20
11321;BMP180;5715;48.234;14.320;2023-02-22T03:42:55;98525.00;;;10.10
11321;BMP180;5715;48.234;14.320;2023-02-22T03:45:51;98537.00;;;10.10
11321;BMP180;5715;48.234;14.320;2023-02-22T03:49:11;98531.00;;;10.10
11321;BMP180;5715;48.234;14.320;2023-02-22T03:52:03;98531.00;;;10.30
11321;BMP180;5715;48.234;14.320;2023-02-22T03:54:52;98535.00;;;10.20
11321;BMP180;5715;48.234;14.320;2023-02-22T03:57:49;98530.00;;;10.20
11321;BMP180;5715;48.234;14.320;2023-02-22T04:00:38;98537.00;;;10.20
11321;BMP180;5715;48.234;14.320;2023-02-22T04:03:30;98539.00;;;10.00
11321;BMP180;5715;48.234;14.320;2023-02-22T04:06:18;98529.00;;;10.00
11321;BMP180;5715;48.234;14.320;2023-02-22T04:09:06;98526.00;;;10.10
11321;BMP180;5715;48.234;14.320;2023-02-22T04:11:54;98538.00;;;10.10
11321;BMP180;5715;48.234;14.320;2023-02-22T04:14:42;98527.00;;;10.00
11321;BMP180;5715;48.234;14.320;2023-02-22T04:17:29;98524.00;;;9.90
11321;BMP180;5715;48.234;14.320;2023-02-22T04:20:18;98522.00;;;9.90
11321;BMP180;5715;48.234;14.320;2023-02-22T04:23:06;98530.00;;;9.90
11321;BMP180;5715;48.234;14.320;2023-02-22T04:25:54;98525.00;;;9.90
11321;BMP180;5715;48.234;14.320;2023-02-22T04:28:41;98517.00;;;9.90
11321;BMP180;5715;48.234;14.320;2023-02-22T04:31:30;98513.00;;;9.90
11321;BMP180;5715;48.234;14.320;2023-02-22T04:34:20;98512.00;;;9.90
11321;BMP180;5715;48.234;14.320;2023-02-22T04:37:08;98508.00;;;9.80
11321;BMP180;5715;48.234;14.320;2023-02-22T04:39:56;98512.00;;;9.90
11321;BMP180;5715;48.234;14.320;2023-02-22T04:42:44;98509.00;;;9.90
11321;BMP180;5715;48.234;14.320;2023-02-22T04:45:32;98504.00;;;10.00
11321;BMP180;5715;48.234;14.320;2023-02-22T04:48:19;98502.00;;;10.10
11321;BMP180;5715;48.234;14.320;2023-02-22T04:51:07;98499.00;;;10.10
11321;BMP180;5715;48.234;14.320;2023-02-22T04:53:54;98494.00;;;10.00
11321;BMP180;5715;48.234;14.320;2023-02-22T04:56:43;98497.00;;;9.90
11321;BMP180;5715;48.234;14.320;2023-02-22T04:59:31;98494.00;;;9.90
11321;BMP180;5715;48.234;14.320;2023-02-22T05:02:19;98493.00;;;9.70
11321;BMP180;5715;48.234;14.320;2023-02-22T05:05:07;98492.00;;;9.80
11321;BMP180;5715;48.234;14.320;2023-02-22T05:07:55;98499.00;;;9.80
11321;BMP180;5715;48.234;14.320;2023-02-22T05:10:43;98496.00;;;9.70
11321;BMP180;5715;48.234;14.320;2023-02-22T05:13:30;98485.00;;;9.60
11321;BMP180;5715;48.234;14.320;2023-02-22T05:16:18;98491.00;;;9.60
11321;BMP180;5715;48.234;14.320;2023-02-22T05:19:06;98487.00;;;9.60
11321;BMP180;5715;48.234;14.320;2023-02-22T05:21:53;98490.00;;;9.60
11321;BMP180;5715;48.234;14.320;2023-02-22T05:24:42;98497.00;;;9.60
11321;BMP180;5715;48.234;14.320;2023-02-22T05:27:30;98495.00;;;9.60
11321;BMP180;5715;48.234;14.320;2023-02-22T05:30:23;98489.00;;;9.70
11321;BMP180;5715;48.234;14.320;2023-02-22T05:33:11;98491.00;;;9.60
11321;BMP180;5715;48.234;14.320;2023-02-22T05:35:59;98485.00;;;9.60
11321;BMP180;5715;48.234;14.320;2023-02-22T05:38:47;98482.00;;;9.50
11321;BMP180;5715;48.234;14.320;2023-02-22T05:41:35;98486.00;;;9.60
11321;BMP180;5715;48.234;14.320;2023-02-22T05:44:23;98481.00;;;9.50
11321;BMP180;5715;48.234;14.320;2023-02-22T05:47:11;98486.00;;;9.60
11321;BMP180;5715;48.234;14.320;2023-02-22T05:49:58;98486.00;;;9.70
11321;BMP180;5715;48.234;14.320;2023-02-22T05:52:47;98492.00;;;9.70
11321;BMP180;5715;48.234;14.320;2023-02-22T05:55:36;98495.00;;;9.70
11321;BMP180;5715;48.234;14.320;2023-02-22T05:58:23;98483.00;;;9.70
11321;BMP180;5715;48.234;14.320;2023-02-22T06:01:11;98488.00;;;9.80
11321;BMP180;5715;48.234;14.320;2023-02-22T06:03:58;98489.00;;;9.80
11321;BMP180;5715;48.234;14.320;2023-02-22T06:06:46;98493.00;;;9.90
11321;BMP180;5715;48.234;14.320;2023-02-22T06:09:33;98492.00;;;10.00
11321;BMP180;5715;48.234;14.320;2023-02-22T06:12:21;98493.00;;;10.00
11321;BMP180;5715;48.234;14.320;2023-02-22T06:15:09;98484.00;;;10.10
11321;BMP180;5715;48.234;14.320;2023-02-22T06:17:58;98488.00;;;10.10
11321;BMP180;5715;48.234;14.320;2023-02-22T06:20:46;98488.00;;;10.20
11321;BMP180;5715;48.234;14.320;2023-02-22T06:23:34;98493.00;;;10.20
11321;BMP180;5715;48.234;14.320;2023-02-22T06:26:21;98487.00;;;10.40
11321;BMP180;5715;48.234;14.320;2023-02-22T06:29:09;98492.00;;;10.50
11321;BMP180;5715;48.234;14.320;2023-02-22T06:31:57;98495.00;;;10.40
11321;BMP180;5715;48.234;14.320;2023-02-22T06:34:44;98498.00;;;10.50
11321;BMP180;5715;48.234;14.320;2023-02-22T06:37:32;98496.00;;;10.80
11321;BMP180;5715;48.234;14.320;2023-02-22T06:40:20;98506.00;;;10.80
11321;BMP180;5715;48.234;14.320;2023-02-22T06:43:08;98500.00;;;10.90
11321;BMP180;5715;48.234;14.320;2023-02-22T06:45:57;98509.00;;;10.90
11321;BMP180;5715;48.234;14.320;2023-02-22T06:48:45;98508.00;;;11.20
11321;BMP180;5715;48.234;14.320;2023-02-22T06:51:36;98500.00;;;11.20
11321;BMP180;5715;48.234;14.320;2023-02-22T06:54:24;98504.00;;;11.20
11321;BMP180;5715;48.234;14.320;2023-02-22T06:57:11;98503.00;;;11.40
11321;BMP180;5715;48.234;14.320;2023-02-22T06:59:59;98509.00;;;11.60
11321;BMP180;5715;48.234;14.320;2023-02-22T07:02:47;98513.00;;;11.60
11321;BMP180;5715;48.234;14.320;2023-02-22T07:05:35;98508.00;;;11.70
11321;BMP180;5715;48.234;14.320;2023-02-22T07:08:22;98509.00;;;11.60
11321;BMP180;5715;48.234;14.320;2023-02-22T07:11:10;98517.00;;;11.80
11321;BMP180;5715;48.234;14.320;2023-02-22T07:13:57;98516.00;;;12.00
11321;BMP180;5715;48.234;14.320;2023-02-22T07:16:45;98511.00;;;12.10
11321;BMP180;5715;48.234;14.320;2023-02-22T07:19:33;98509.00;;;12.10
11321;BMP180;5715;48.234;14.320;2023-02-22T07:22:20;98500.00;;;12.20
11321;BMP180;5715;48.234;14.320;2023-02-22T07:25:09;98499.00;;;12.30
11321;BMP180;5715;48.234;14.320;2023-02-22T07:27:58;98501.00;;;12.50
11321;BMP180;5715;48.234;14.320;2023-02-22T07:30:46;98496.00;;;12.60
11321;BMP180;5715;48.234;14.320;2023-02-22T07:33:34;98500.00;;;12.70
11321;BMP180;5715;48.234;14.320;2023-02-22T07:36:21;98502.00;;;12.80
11321;BMP180;5715;48.234;14.320;2023-02-22T07:39:09;98499.00;;;12.70
11321;BMP180;5715;48.234;14.320;2023-02-22T07:41:57;98488.00;;;12.70
11321;BMP180;5715;48.234;14.320;2023-02-22T07:44:45;98483.00;;;13.00
11321;BMP180;5715;48.234;14.320;2023-02-22T07:47:33;98485.00;;;13.10
11321;BMP180;5715;48.234;14.320;2023-02-22T07:50:22;98483.00;;;13.20
11321;BMP180;5715;48.234;14.320;2023-02-22T07:53:24;98480.00;;;13.50
11321;BMP180;5715;48.234;14.320;2023-02-22T07:56:14;98472.00;;;13.50
11321;BMP180;5715;48.234;14.320;2023-02-22T07:59:04;98477.00;;;13.70
11321;BMP180;5715;48.234;14.320;2023-02-22T08:01:51;98477.00;;;14.00
11321;BMP180;5715;48.234;14.320;2023-02-22T08:04:39;98471.00;;;13.90
11321;BMP180;5715;48.234;14.320;2023-02-22T08:07:27;98470.00;;;14.20
11321;BMP180;5715;48.234;14.320;2023-02-22T08:10:17;98468.00;;;14.40
11321;BMP180;5715;48.234;14.320;2023-02-22T08:13:05;98452.00;;;14.80
11321;BMP180;5715;48.234;14.320;2023-02-22T08:15:53;98458.00;;;14.80
11321;BMP180;5715;48.234;14.320;2023-02-22T08:18:42;98459.00;;;15.00
11321;BMP180;5715;48.234;14.320;2023-02-22T08:21:29;98453.00;;;15.20
11321;BMP180;5715;48.234;14.320;2023-02-22T08:24:17;98449.00;;;15.40
11321;BMP180;5715;48.234;14.320;2023-02-22T08:27:05;98448.00;;;15.70
11321;BMP180;5715;48.234;14.320;2023-02-22T08:29:54;98452.00;;;16.00
11321;BMP180;5715;48.234;14.320;2023-02-22T08:32:42;98451.00;;;16.00
11321;BMP180;5715;48.234;14.320;2023-02-22T08:35:32;98451.00;;;16.20
11321;BMP180;5715;48.234;14.320;2023-02-22T08:38:27;98451.00;;;16.60
11321;BMP180;5715;48.234;14.320;2023-02-22T08:41:15;98447.00;;;16.70
11321;BMP180;5715;48.234;14.320;2023-02-22T08:44:04;98448.00;;;16.80
11321;BMP180;5715;48.234;14.320;2023-02-22T08:46:51;98453.00;;;17.00
11321;BMP180;5715;48.234;14.320;2023-02-22T08:49:39;98461.00;;;17.10
11321;BMP180;5715;48.234;14.320;2023-02-22T08:52:26;98458.00;;;17.30
11321;BMP180;5715;48.234;14.320;2023-02-22T08:55:14;98453.00;;;17.40
11321;BMP180;5715;48.234;14.320;2023-02-22T08:58:04;98457.00;;;17.50
11321;BMP180;5715;48.234;14.320;2023-02-22T09:00:51;98454.00;;;17.70
11321;BMP180;5715;48.234;14.320;2023-02-22T09:03:40;98458.00;;;17.90
11321;BMP180;5715;48.234;14.320;2023-02-22T09:06:28;98458.00;;;18.30
11321;BMP180;5715;48.234;14.320;2023-02-22T09:09:17;98453.00;;;18.50
11321;BMP180;5715;48.234;14.320;2023-02-22T09:12:08;98444.00;;;18.10
11321;BMP180;5715;48.234;14.320;2023-02-22T09:14:55;98445.00;;;18.10
11321;BMP180;5715;48.234;14.320;2023-02-22T09:17:43;98444.00;;;18.20
11321;BMP180;5715;48.234;14.320;2023-02-22T09:20:31;98437.00;;;18.50
11321;BMP180;5715;48.234;14.320;2023-02-22T09:23:19;98435.00;;;18.50
11321;BMP180;5715;48.234;14.320;2023-02-22T09:26:08;98431.00;;;19.00
11321;BMP180;5715;48.234;14.320;2023-02-22T09:28:56;98424.00;;;19.00
11321;BMP180;5715;48.234;14.320;2023-02-22T09:31:44;98422.00;;;19.50
11321;BMP180;5715;48.234;14.320;2023-02-22T09:34:32;98425.00;;;19.10
11321;BMP180;5715;48.234;14.320;2023-02-22T09:37:21;98419.00;;;19.70
11321;BMP180;5715;48.234;14.320;2023-02-22T09:40:18;98415.00;;;19.70
11321;BMP180;5715;48.234;14.320;2023-02-22T09:43:33;98404.00;;;19.90
11321;BMP180;5715;48.234;14.320;2023-02-22T09:46:37;98404.00;;;19.90
11321;BMP180;5715;48.234;14.320;2023-02-22T09:49:37;98405.00;;;20.40
11321;BMP180;5715;48.234;14.320;2023-02-22T09:52:38;98397.00;;;20.50
11321;BMP180;5715;48.234;14.320;2023-02-22T09:55:43;98399.00;;;21.10
11321;BMP180;5715;48.234;14.320;2023-02-22T09:58:39;98396.00;;;20.60
11321;BMP180;5715;48.234;14.320;2023-02-22T10:01:45;98386.00;;;21.20
11321;BMP180;5715;48.234;14.320;2023-02-22T10:04:48;98383.00;;;21.10
11321;BMP180;5715;48.234;14.320;2023-02-22T10:07:50;98377.00;;;21.30
11321;BMP180;5715;48.234;14.320;2023-02-22T10:10:42;98379.00;;;21.30
11321;BMP180;5715;48.234;14.320;2023-02-22T10:23:31;98354.00;;;20.20
11321;BMP180;5715;48.234;14.320;2023-02-22T10:26:34;98360.00;;;20.90
11321;BMP180;5715;48.234;14.320;2023-02-22T10:30:03;98349.00;;;21.10
11321;BMP180;5715;48.234;14.320;2023-02-22T10:33:25;98346.00;;;21.40
11321;BMP180;5715;48.234;14.320;2023-02-22T10:36:19;98344.00;;;21.80
11321;BMP180;5715;48.234;14.320;2023-02-22T10:39:31;98340.00;;;21.60
11321;BMP180;5715;48.234;14.320;2023-02-22T10:42:25;98334.00;;;21.50
11321;BMP180;5715;48.234;14.320;2023-02-22T10:45:28;98328.00;;;21.70
11321;BMP180;5715;48.234;14.320;2023-02-22T10:48:31;98322.00;;;21.40
11321;BMP180;5715;48.234;14.320;2023-02-22T10:51:19;98325.00;;;21.40
11321;BMP180;5715;48.234;14.320;2023-02-22T10:57:00;98311.00;;;22.20
11321;BMP180;5715;48.234;14.320;2023-02-22T10:59:50;98299.00;;;21.60
11321;BMP180;5715;48.234;14.320;2023-02-22T11:02:55;98309.00;;;21.90
11321;BMP180;5715;48.234;14.320;2023-02-22T11:05:44;98311.00;;;21.90
11321;BMP180;5715;48.234;14.320;2023-02-22T11:08:32;98300.00;;;21.50
11321;BMP180;5715;48.234;14.320;2023-02-22T11:11:23;98300.00;;;22.20
11321;BMP180;5715;48.234;14.320;2023-02-22T11:14:25;98285.00;;;22.00
11321;BMP180;5715;48.234;14.320;2023-02-22T11:17:32;98278.00;;;22.10
11321;BMP180;5715;48.234;14.320;2023-02-22T11:20:35;98282.00;;;22.40
11321;BMP180;5715;48.234;14.320;2023-02-22T11:23:24;98272.00;;;23.00
11321;BMP180;5715;48.234;14.320;2023-02-22T11:26:17;98264.00;;;22.30
11321;BMP180;5715;48.234;14.320;2023-02-22T11:32:18;98247.00;;;22.20
11321;BMP180;5715;48.234;14.320;2023-02-22T11:35:34;98255.00;;;22.50
11321;BMP180;5715;48.234;14.320;2023-02-22T11:38:37;98243.00;;;22.60
11321;BMP180;5715;48.234;14.320;2023-02-22T11:41:34;98239.00;;;22.80
11321;BMP180;5715;48.234;14.320;2023-02-22T11:44:29;98239.00;;;23.20
11321;BMP180;5715;48.234;14.320;2023-02-22T11:47:24;98239.00;;;23.40
11321;BMP180;5715;48.234;14.320;2023-02-22T11:50:52;98235.00;;;23.20
11321;BMP180;5715;48.234;14.320;2023-02-22T11:56:52;98212.00;;;23.00
11321;BMP180;5715;48.234;14.320;2023-02-22T12:17:32;98191.00;;;24.00
11321;BMP180;5715;48.234;14.320;2023-02-22T12:20:37;98186.00;;;23.90
11321;BMP180;5715;48.234;14.320;2023-02-22T12:24:03;98181.00;;;24.20
11321;BMP180;5715;48.234;14.320;2023-02-22T12:27:14;98178.00;;;23.80
11321;BMP180;5715;48.234;14.320;2023-02-22T12:30:29;98177.00;;;24.00
11321;BMP180;5715;48.234;14.320;2023-02-22T12:33:26;98169.00;;;23.90
11321;BMP180;5715;48.234;14.320;2023-02-22T12:36:20;98162.00;;;24.10
11321;BMP180;5715;48.234;14.320;2023-02-22T12:43:22;98161.00;;;23.80
11321;BMP180;5715;48.234;14.320;2023-02-22T12:46:22;98156.00;;;24.00
11321;BMP180;5715;48.234;14.320;2023-02-22T12:49:21;98163.00;;;24.70
11321;BMP180;5715;48.234;14.320;2023-02-22T12:55:30;98149.00;;;24.60
11321;BMP180;5715;48.234;14.320;2023-02-22T12:59:00;98151.00;;;24.70
11321;BMP180;5715;48.234;14.320;2023-02-22T13:02:54;98154.00;;;24.60
11321;BMP180;5715;48.234;14.320;2023-02-22T13:05:38;98147.00;;;24.40
11321;BMP180;5715;48.234;14.320;2023-02-22T13:08:44;98144.00;;;24.90
11321;BMP180;5715;48.234;14.320;2023-02-22T13:11:51;98141.00;;;25.20
11321;BMP180;5715;48.234;14.320;2023-02-22T13:18:16;98132.00;;;25.20
11321;BMP180;5715;48.234;14.320;2023-02-22T13:21:35;98131.00;;;25.20
11321;BMP180;5715;48.234;14.320;2023-02-22T13:34:20;98113.00;;;24.50
11321;BMP180;5715;48.234;14.320;2023-02-22T13:41:20;98109.00;;;25.10
11321;BMP180;5715;48.234;14.320;2023-02-22T13:54:03;98104.00;;;24.50
11321;BMP180;5715;48.234;14.320;2023-02-22T13:56:54;98101.00;;;24.40
11321;BMP180;5715;48.234;14.320;2023-02-22T13:59:43;98100.00;;;25.10
11321;BMP180;5715;48.234;14.320;2023-02-22T14:02:59;98099.00;;;24.60
11321;BMP180;5715;48.234;14.320;2023-02-22T14:05:51;98097.00;;;24.30
11321;BMP180;5715;48.234;14.320;2023-02-22T14:08:39;98079.00;;;24.30
11321;BMP180;5715;48.234;14.320;2023-02-22T14:14:18;98083.00;;;24.40
11321;BMP180;5715;48.234;14.320;2023-02-22T14:26:36;98079.00;;;25.00
11321;BMP180;5715;48.234;14.320;2023-02-22T14:29:24;98070.00;;;24.50
11321;BMP180;5715;48.234;14.320;2023-02-22T14:32:12;98072.00;;;24.70
11321;BMP180;5715;48.234;14.320;2023-02-22T14:35:38;98066.00;;;24.50
11321;BMP180;5715;48.234;14.320;2023-02-22T14:38:36;98068.00;;;24.80
11321;BMP180;5715;48.234;14.320;2023-02-22T14:41:28;98066.00;;;24.70
11321;BMP180;5715;48.234;14.320;2023-02-22T14:44:24;98064.00;;;24.50
11321;BMP180;5715;48.234;14.320;2023-02-22T14:47:23;98066.00;;;24.60
11321;BMP180;5715;48.234;14.320;2023-02-22T14:50:27;98061.00;;;24.20
11321;BMP180;5715;48.234;14.320;2023-02-22T14:53:29;98055.00;;;24.50
11321;BMP180;5715;48.234;14.320;2023-02-22T14:56:27;98053.00;;;24.00
11321;BMP180;5715;48.234;14.320;2023-02-22T14:59:23;98054.00;;;24.00
11321;BMP180;5715;48.234;14.320;2023-02-22T15:02:13;98045.00;;;24.10
11321;BMP180;5715;48.234;14.320;2023-02-22T15:05:02;98052.00;;;24.50
11321;BMP180;5715;48.234;14.320;2023-02-22T15:07:59;98046.00;;;24.50
11321;BMP180;5715;48.234;14.320;2023-02-22T15:10:50;98048.00;;;24.10
11321;BMP180;5715;48.234;14.320;2023-02-22T15:13:51;98046.00;;;24.00
11321;BMP180;5715;48.234;14.320;2023-02-22T15:16:54;98055.00;;;24.40
11321;BMP180;5715;48.234;14.320;2023-02-22T15:19:42;98045.00;;;24.40
11321;BMP180;5715;48.234;14.320;2023-02-22T15:22:34;98034.00;;;24.10
11321;BMP180;5715;48.234;14.320;2023-02-22T15:25:27;98047.00;;;24.20
11321;BMP180;5715;48.234;14.320;2023-02-22T15:28:16;98048.00;;;23.90
11321;BMP180;5715;48.234;14.320;2023-02-22T15:31:36;98053.00;;;24.00
11321;BMP180;5715;48.234;14.320;2023-02-22T15:34:30;98047.00;;;23.50
11321;BMP180;5715;48.234;14.320;2023-02-22T15:37:23;98047.00;;;23.60
11321;BMP180;5715;48.234;14.320;2023-02-22T15:40:18;98050.00;;;23.30
11321;BMP180;5715;48.234;14.320;2023-02-22T15:43:16;98041.00;;;23.40
11321;BMP180;5715;48.234;14.320;2023-02-22T15:46:06;98047.00;;;23.00
11321;BMP180;5715;48.234;14.320;2023-02-22T15:49:16;98048.00;;;22.80
11321;BMP180;5715;48.234;14.320;2023-02-22T15:52:18;98049.00;;;23.20
11321;BMP180;5715;48.234;14.320;2023-02-22T15:55:10;98050.00;;;23.10
11321;BMP180;5715;48.234;14.320;2023-02-22T15:58:26;98061.00;;;23.00
11321;BMP180;5715;48.234;14.320;2023-02-22T16:01:18;98047.00;;;22.80
11321;BMP180;5715;48.234;14.320;2023-02-22T16:04:17;98053.00;;;22.70
11321;BMP180;5715;48.234;14.320;2023-02-22T16:07:07;98059.00;;;22.70
11321;BMP180;5715;48.234;14.320;2023-02-22T16:10:04;98057.00;;;22.70
11321;BMP180;5715;48.234;14.320;2023-02-22T16:13:34;98054.00;;;22.30
11321;BMP180;5715;48.234;14.320;2023-02-22T16:16:34;98051.00;;;22.00
11321;BMP180;5715;48.234;14.320;2023-02-22T16:19:35;98053.00;;;22.10
11321;BMP180;5715;48.234;14.320;2023-02-22T16:22:35;98065.00;;;22.00
11321;BMP180;5715;48.234;14.320;2023-02-22T16:25:31;98060.00;;;21.90
11321;BMP180;5715;48.234;14.320;2023-02-22T16:28:29;98063.00;;;21.60
11321;BMP180;5715;48.234;14.320;2023-02-22T16:31:23;98065.00;;;21.50
11321;BMP180;5715;48.234;14.320;2023-02-22T16:34:13;98061.00;;;21.30
11321;BMP180;5715;48.234;14.320;2023-02-22T16:37:01;98065.00;;;21.60
11321;BMP180;5715;48.234;14.320;2023-02-22T16:39:50;98064.00;;;21.10
11321;BMP180;5715;48.234;14.320;2023-02-22T16:42:38;98069.00;;;21.50
11321;BMP180;5715;48.234;14.320;2023-02-22T16:45:26;98065.00;;;21.40
11321;BMP180;5715;48.234;14.320;2023-02-22T16:48:23;98076.00;;;21.20
11321;BMP180;5715;48.234;14.320;2023-02-22T16:51:25;98074.00;;;21.30
11321;BMP180;5715;48.234;14.320;2023-02-22T16:54:24;98078.00;;;21.10
11321;BMP180;5715;48.234;14.320;2023-02-22T16:57:20;98085.00;;;21.30
11321;BMP180;5715;48.234;14.320;2023-02-22T17:00:17;98075.00;;;21.00
11321;BMP180;5715;48.234;14.320;2023-02-22T17:03:05;98070.00;;;21.30
11321;BMP180;5715;48.234;14.320;2023-02-22T17:05:53;98086.00;;;21.00
11321;BMP180;5715;48.234;14.320;2023-02-22T17:08:41;98081.00;;;20.90
11321;BMP180;5715;48.234;14.320;2023-02-22T17:11:29;98088.00;;;21.00
11321;BMP180;5715;48.234;14.320;2023-02-22T17:14:23;98087.00;;;20.90
11321;BMP180;5715;48.234;14.320;2023-02-22T17:17:14;98092.00;;;20.80
11321;BMP180;5715;48.234;14.320;2023-02-22T17:20:02;98094.00;;;20.80
11321;BMP180;5715;48.234;14.320;2023-02-22T17:23:00;98090.00;;;20.90
11321;BMP180;5715;48.234;14.320;2023-02-22T17:25:50;98091.00;;;20.70
11321;BMP180;5715;48.234;14.320;2023-02-22T17:28:40;98091.00;;;20.80
11321;BMP180;5715;48.234;14.320;2023-02-22T17:31:30;98092.00;;;20.40
11321;BMP180;5715;48.234;14.320;2023-02-22T17:34:19;98093.00;;;20.70
11321;BMP180;5715;48.234;14.320;2023-02-22T17:37:06;98096.00;;;20.50
11321;BMP180;5715;48.234;14.320;2023-02-22T17:39:54;98096.00;;;20.00
11321;BMP180;5715;48.234;14.320;2023-02-22T17:42:43;98096.00;;;20.10
11321;BMP180;5715;48.234;14.320;2023-02-22T17:45:31;98100.00;;;20.30
11321;BMP180;5715;48.234;14.320;2023-02-22T17:48:19;98103.00;;;20.30
11321;BMP180;5715;48.234;14.320;2023-02-22T17:51:11;98101.00;;;19.80
11321;BMP180;5715;48.234;14.320;2023-02-22T17:53:58;98098.00;;;19.90
11321;BMP180;5715;48.234;14.320;2023-02-22T17:56:46;98092.00;;;19.70
11321;BMP180;5715;48.234;14.320;2023-02-22T17:59:34;98095.00;;;20.00
11321;BMP180;5715;48.234;14.320;2023-02-22T18:02:22;98088.00;;;19.80
11321;BMP180;5715;48.234;14.320;2023-02-22T18:05:12;98094.00;;;20.00
11321;BMP180;5715;48.234;14.320;2023-02-22T18:08:02;98095.00;;;19.90
11321;BMP180;5715;48.234;14.320;2023-02-22T18:10:50;98092.00;;;19.90
11321;BMP180;5715;48.234;14.320;2023-02-22T18:13:44;98092.00;;;19.80
11321;BMP180;5715;48.234;14.320;2023-02-22T18:16:32;98095.00;;;19.60
11321;BMP180;5715;48.234;14.320;2023-02-22T18:19:20;98094.00;;;19.70
11321;BMP180;5715;48.234;14.320;2023-02-22T18:22:09;98085.00;;;19.70
11321;BMP180;5715;48.234;14.320;2023-02-22T18:24:57;98092.00;;;19.70
11321;BMP180;5715;48.234;14.320;2023-02-22T18:27:48;98096.00;;;19.50
11321;BMP180;5715;48.234;14.320;2023-02-22T18:30:38;98095.00;;;19.60
11321;BMP180;5715;48.234;14.320;2023-02-22T18:33:27;98101.00;;;19.50
11321;BMP180;5715;48.234;14.320;2023-02-22T18:36:16;98092.00;;;19.30
11321;BMP180;5715;48.234;14.320;2023-02-22T18:39:10;98097.00;;;19.20
11321;BMP180;5715;48.234;14.320;2023-02-22T18:41:58;98100.00;;;19.20
11321;BMP180;5715;48.234;14.320;2023-02-22T18:44:45;98101.00;;;19.10
11321;BMP180;5715;48.234;14.320;2023-02-22T18:47:42;98109.00;;;19.10